Lincoln, NE (68501)

9:32 PM CST on February 08, 2016 (GMT -0600)
Capitol Beach | | Change Station
CLOSE
Current Station
Personal Weather Station
Location: Lincoln, NE
Elevation: 1134 ft
Nearby Weather Stations

Elev 1134 ft 40.82 °N, 96.73 °W | Updated 0 second ago

Clear
Clear
32.7 °F
Feels Like 25 °F
N
9.0
Wind Variable Wind from WNW
Gusts 11.0 mph

Today
High -- | Low -- °F
--% Chance of Precip.
Yesterday
High -- | Low -- °F
Precip. -- in
Pressure 30.17 in
Visibility 10.0 miles
Clouds Clear
Windchill 25 °F
Dew Point 20 °F
Humidity 58%
Rainfall 0.00 in
Snow Depth Not available.
7:30 AM 5:52 PM
New Moon, 0% visible
METAR KLNK 090254Z 31014KT 10SM CLR 00/M06 A3013 RMK AO2 SLP214 T00001061 56005
Pressure 30.17 in
Visibility 10.0 miles
Clouds Clear
Windchill 25 °F
Dew Point 20 °F
Humidity 58%
Rainfall 0.00 in
Snow Depth Not available.
7:30 AM 5:52 PM
New Moon, 0% visible
METAR KLNK 090254Z 31014KT 10SM CLR 00/M06 A3013 RMK AO2 SLP214 T00001061 56005

10-Day Weather Forecast

Almanac

Astronomy

Feb. 08, 2016 Rise Set
Actual Time
Civil Twilight
Nautical Twilight
Astronomical Twilight
Moon
Length of Visible Light
Length of Day
Tomorrow will be .
, % of the Moon is Illuminated

Today's Extremes

State Highs State Lows

Community

WunderPhotos

Upload Photos

1,891,527 photos uploaded!

WunderBlog® & News

Nearby

Air Quality

  Air Quality AQ Index Pollutant
Not available.

Snow Depth

Station Depth Elevation

Earthquake Activity

City Distance Mag. Time & Date
Minimum magnitude displayed is 2.5.

Coastal Water Temperatures

Place Temperature

Stations

Nearby Weather Stations

Station Location Temp. Windchill Dew Point Humidity Wind Precip. Elev Updated Type
                   

Watches & Warnings

There are currently no watches in effect.